Cali, Colombia

8:53 AM COT on May 24, 2015 (GMT -0500)
Alfonso Bonilla Aragon International | | Change Station
CLOSE
Current Station
Airport
Location: Cali,
Elevation: 3179 ft
Nearby Weather Stations

Elev 3179 ft 3.54 °N, 76.38 °W | Updated 53 minutes ago

Scattered Clouds
Scattered Clouds
72 °F
Feels Like 72 °F
N
4
Wind Variable Wind from SSE

Today
High -- | Low -- °F
--% Chance of Precip.
Yesterday
High -- | Low -- °F
Precip. -- in
5:53 AM 6:11 PM
Waxing Crescent, 39% visible
Pressure 30.03 in
Visibility 6.2 miles
Clouds Scattered Clouds 5000 ft
Scattered Clouds 10000 ft
Dew Point 68 °F
Humidity 88%
Rainfall 0.00 in
Snow Depth Not available.
UV 3 out of 12
Pollen Not available.
Air Quality Not available.
Flu Activity Not available.
METAR SKCL 241300Z 15003KT 9999 SCT050 SCT100 22/20 A3003

More Conditions Fewer Conditions

Pressure 30.03 in
Visibility 6.2 miles
Clouds Scattered Clouds 5000 ft
Scattered Clouds 10000 ft
Dew Point 68 °F
Humidity 88%
Rainfall 0.00 in
Snow Depth Not available.
UV 3 out of 12
Pollen Not available.
Air Quality Not available.
Flu Activity Not available.
METAR SKCL 241300Z 15003KT 9999 SCT050 SCT100 22/20 A3003

More Conditions Fewer Conditions

10-Day Weather Forecast

Almanac

Astronomy

May. 24, 2015 Rise Set
Actual Time
Civil Twilight
Nautical Twilight
Astronomical Twilight
Moon
Length of Visible Light
Length of Day
Tomorrow will be .
, % of the Moon is Illuminated

Today's Extremes

Country Highs Country Lows

Community

WunderPhotos

Upload Photos

1,823,738 photos uploaded!

WunderBlogs® & News

Nearby

Air Quality

  Air Quality AQ Index Pollutant
Not available.

Snow Depth

Station Depth Elevation

Earthquake Activity

City Distance Mag. Time & Date
Minimum magnitude displayed is 2.5.

Coastal Water Temperatures

Place Temperature

Stations

Nearby Weather Stations

Station Location Temp. Windchill Dew Point Humidity Wind Precip. Elev Updated Type